createdAt,value
2022-10-15T00:00:22.490Z,62.90
2022-10-15T00:02:50.446Z,62.72
2022-10-15T00:05:17.892Z,62.69
2022-10-15T00:07:45.224Z,62.64
2022-10-15T00:10:12.699Z,62.93
2022-10-15T00:12:40.659Z,63.04
2022-10-15T00:15:10.166Z,62.65
2022-10-15T00:17:39.677Z,62.92
2022-10-15T00:20:11.011Z,62.59
2022-10-15T00:22:39.170Z,62.99
2022-10-15T00:25:08.437Z,62.76
2022-10-15T00:27:37.366Z,62.54
2022-10-15T00:30:07.063Z,62.30
2022-10-15T00:32:34.479Z,62.42
2022-10-15T00:35:03.360Z,62.65
2022-10-15T00:37:30.648Z,63.08
2022-10-15T00:39:57.975Z,62.95
2022-10-15T00:42:25.494Z,62.90
2022-10-15T00:44:56.730Z,63.30
2022-10-15T00:47:30.506Z,63.28
2022-10-15T00:50:08.662Z,63.36
2022-10-15T00:52:43.982Z,63.30
2022-10-15T00:55:16.978Z,63.60
2022-10-15T00:57:47.961Z,63.85
2022-10-15T01:00:17.417Z,63.84
2022-10-15T01:02:46.578Z,64.04
2022-10-15T01:05:18.244Z,64.10
2022-10-15T01:07:45.547Z,64.34
2022-10-15T01:10:13.810Z,64.49
2022-10-15T01:12:57.262Z,64.56
2022-10-15T01:15:33.659Z,64.46
2022-10-15T01:18:10.789Z,64.69
2022-10-15T01:20:52.953Z,64.67
2022-10-15T01:24:37.529Z,64.93
2022-10-15T01:27:26.438Z,65.06
2022-10-15T01:30:21.980Z,64.96
2022-10-15T01:33:35.046Z,64.92
2022-10-15T01:36:17.663Z,64.79
2022-10-15T01:38:55.807Z,64.32
2022-10-15T01:41:37.614Z,64.21
2022-10-15T01:44:11.915Z,64.11
2022-10-15T01:46:47.722Z,64.28
2022-10-15T01:49:26.137Z,63.66
2022-10-15T01:51:55.806Z,63.70
2022-10-15T01:54:27.834Z,63.68
2022-10-15T01:56:58.201Z,63.51
2022-10-15T01:59:31.225Z,63.68
2022-10-15T02:01:59.964Z,63.68
2022-10-15T02:04:30.002Z,63.66
2022-10-15T02:07:04.420Z,63.71
2022-10-15T02:09:44.226Z,63.47
2022-10-15T02:12:30.768Z,63.50
2022-10-15T02:15:06.503Z,63.29
2022-10-15T02:17:45.335Z,63.22
2022-10-15T02:20:19.943Z,63.22
2022-10-15T02:22:55.639Z,63.49
2022-10-15T02:25:25.875Z,62.98
2022-10-15T02:27:57.134Z,63.22
2022-10-15T02:30:26.737Z,62.98
2022-10-15T02:32:59.458Z,63.16
2022-10-15T02:35:28.232Z,62.99
2022-10-15T02:38:03.070Z,62.99
2022-10-15T02:40:35.889Z,63.06
2022-10-15T02:43:08.898Z,62.98
2022-10-15T02:45:36.850Z,63.12
2022-10-15T02:48:07.481Z,62.99
2022-10-15T02:50:34.821Z,63.17
2022-10-15T02:53:02.387Z,62.96
2022-10-15T02:55:29.807Z,63.04
2022-10-15T02:57:57.177Z,62.62
2022-10-15T03:00:24.934Z,62.78
2022-10-15T03:02:52.190Z,62.83
2022-10-15T03:05:20.945Z,62.83
2022-10-15T03:07:48.196Z,62.24
2022-10-15T03:10:15.621Z,62.46
2022-10-15T03:12:42.840Z,62.56
2022-10-15T03:15:10.685Z,62.31
2022-10-15T03:17:38.057Z,62.14
2022-10-15T03:20:06.410Z,62.06
2022-10-15T03:22:35.022Z,61.78
2022-10-15T03:25:02.471Z,61.63
2022-10-15T03:27:29.729Z,61.65
2022-10-15T03:29:57.108Z,61.83
2022-10-15T03:32:24.432Z,61.69
2022-10-15T03:34:51.727Z,61.56
2022-10-15T03:37:18.990Z,61.43
2022-10-15T03:39:48.083Z,61.25
2022-10-15T03:42:15.422Z,61.12
2022-10-15T03:44:42.696Z,61.32
2022-10-15T03:47:10.031Z,61.43
2022-10-15T03:49:37.304Z,61.02
2022-10-15T03:52:04.922Z,60.83
2022-10-15T03:54:32.160Z,61.01
2022-10-15T03:57:01.441Z,60.49
2022-10-15T03:59:29.084Z,60.57
2022-10-15T04:01:56.300Z,60.56
2022-10-15T04:04:23.582Z,60.88
2022-10-15T04:06:50.862Z,60.82
2022-10-15T04:09:18.158Z,61.07
2022-10-15T04:11:45.777Z,61.21
2022-10-15T04:14:14.403Z,61.51
2022-10-15T04:16:44.151Z,61.67
2022-10-15T04:19:11.521Z,61.99
2022-10-15T04:21:38.807Z,62.08
2022-10-15T04:24:06.405Z,62.06
2022-10-15T04:26:36.545Z,62.33
2022-10-15T04:29:03.973Z,62.54
2022-10-15T04:31:33.424Z,62.33
2022-10-15T04:34:00.767Z,62.34
2022-10-15T04:36:28.067Z,62.25
2022-10-15T04:38:55.493Z,61.95
2022-10-15T04:41:22.911Z,62.13
2022-10-15T04:43:50.120Z,62.07
2022-10-15T04:46:17.476Z,62.36
2022-10-15T04:48:46.055Z,62.43
2022-10-15T04:51:16.383Z,62.81
2022-10-15T04:53:44.397Z,63.16
2022-10-15T04:56:15.621Z,63.22
2022-10-15T04:58:45.052Z,63.41
2022-10-15T05:01:14.570Z,63.31
2022-10-15T05:03:45.266Z,63.14
2022-10-15T05:06:17.067Z,62.89
2022-10-15T05:08:45.155Z,62.77
2022-10-15T05:11:16.215Z,62.47
2022-10-15T05:13:43.731Z,62.48
2022-10-15T05:16:16.379Z,62.28
2022-10-15T05:18:47.650Z,62.47
2022-10-15T05:21:18.303Z,62.69
2022-10-15T05:23:47.161Z,62.95
2022-10-15T05:26:20.271Z,63.13
2022-10-15T05:28:48.093Z,63.20
2022-10-15T05:31:19.254Z,63.32
2022-10-15T05:33:47.032Z,63.48
2022-10-15T05:36:19.365Z,63.26
2022-10-15T05:38:48.774Z,63.68
2022-10-15T05:41:16.482Z,63.57
2022-10-15T05:43:46.438Z,63.97
2022-10-15T05:46:13.823Z,64.16
2022-10-15T05:48:41.112Z,64.22
2022-10-15T05:51:12.887Z,64.06
2022-10-15T05:53:43.228Z,64.21
2022-10-15T05:56:10.574Z,64.08
2022-10-15T05:58:37.992Z,64.20
2022-10-15T06:01:08.134Z,64.05
2022-10-15T06:03:36.189Z,64.02
2022-10-15T06:06:04.389Z,64.00
2022-10-15T06:08:32.287Z,64.09
2022-10-15T06:11:08.383Z,64.23
2022-10-15T06:13:39.380Z,64.04
2022-10-15T06:16:07.859Z,64.02
2022-10-15T06:18:35.920Z,64.18
2022-10-15T06:21:03.229Z,64.35
2022-10-15T06:23:30.726Z,64.25
2022-10-15T06:26:04.027Z,64.04
2022-10-15T06:28:31.877Z,64.12
2022-10-15T06:31:00.364Z,64.19
2022-10-15T06:33:28.751Z,64.18
2022-10-15T06:36:00.158Z,64.09
2022-10-15T06:38:27.427Z,64.12
2022-10-15T06:40:54.682Z,64.02
2022-10-15T06:43:23.780Z,64.13
2022-10-15T06:45:51.079Z,63.84
2022-10-15T06:48:18.557Z,63.93
2022-10-15T06:50:45.956Z,63.67
2022-10-15T06:53:13.269Z,63.54
2022-10-15T06:55:40.562Z,63.35
2022-10-15T06:58:07.865Z,63.68
2022-10-15T07:00:36.550Z,62.87
2022-10-15T07:03:05.114Z,62.76
2022-10-15T07:05:33.022Z,62.69
2022-10-15T07:08:00.997Z,62.65
2022-10-15T07:10:29.063Z,62.51
2022-10-15T07:12:56.495Z,62.44
2022-10-15T07:15:23.847Z,62.59
2022-10-15T07:18:01.378Z,62.50
2022-10-15T07:20:30.957Z,62.57
2022-10-15T07:22:59.204Z,62.43
2022-10-15T07:25:28.097Z,62.36
2022-10-15T07:27:56.251Z,62.39
2022-10-15T07:30:27.420Z,62.38
2022-10-15T07:32:57.934Z,62.24
2022-10-15T07:35:26.069Z,61.92
2022-10-15T07:37:53.579Z,61.83
2022-10-15T07:40:21.229Z,61.78
2022-10-15T07:42:54.227Z,61.42
2022-10-15T07:45:21.479Z,61.71
2022-10-15T07:47:48.763Z,61.64
2022-10-15T07:50:17.863Z,61.59
2022-10-15T07:52:45.521Z,61.70
2022-10-15T07:55:13.220Z,61.90
2022-10-15T07:57:40.773Z,61.91
2022-10-15T08:00:10.077Z,61.88
2022-10-15T08:02:37.378Z,62.04
2022-10-15T08:05:05.463Z,62.04
2022-10-15T08:07:34.071Z,61.92
2022-10-15T08:10:01.458Z,62.17
2022-10-15T08:12:28.730Z,61.98
2022-10-15T08:14:56.017Z,61.79
2022-10-15T08:17:23.303Z,61.68
2022-10-15T08:19:50.609Z,61.40
2022-10-15T08:22:17.931Z,61.26
2022-10-15T08:24:46.661Z,60.71
2022-10-15T08:27:14.238Z,61.06
2022-10-15T08:29:41.456Z,60.86
2022-10-15T08:32:08.675Z,60.63
2022-10-15T08:34:35.953Z,60.27
2022-10-15T08:37:03.633Z,59.72
2022-10-15T08:39:31.230Z,58.91
2022-10-15T08:42:05.861Z,58.49
2022-10-15T08:44:43.557Z,58.38
2022-10-15T08:47:27.066Z,56.75
2022-10-15T08:49:58.425Z,55.50
2022-10-15T08:52:39.286Z,54.59
2022-10-15T08:55:10.056Z,54.81
2022-10-15T08:57:46.576Z,54.42
2022-10-15T09:00:19.929Z,54.25
2022-10-15T09:02:58.209Z,54.59
2022-10-15T09:05:38.081Z,54.31
2022-10-15T09:08:27.637Z,54.24
2022-10-15T09:11:02.582Z,54.56
2022-10-15T09:13:40.273Z,54.72
2022-10-15T09:16:16.608Z,54.84
2022-10-15T09:18:49.915Z,55.30
2022-10-15T09:21:17.516Z,55.09
2022-10-15T09:23:45.335Z,55.79
2022-10-15T09:26:27.068Z,54.92
2022-10-15T09:29:06.731Z,55.00
2022-10-15T09:31:46.639Z,55.10
2022-10-15T09:34:27.552Z,55.75
2022-10-15T09:37:02.246Z,54.91
2022-10-15T09:39:48.016Z,55.34
2022-10-15T09:42:30.671Z,56.02
2022-10-15T09:45:04.408Z,56.40
2022-10-15T09:47:34.620Z,55.75
2022-10-15T09:50:04.973Z,55.89
2022-10-15T09:53:00.499Z,56.30
2022-10-15T09:55:41.131Z,56.24
2022-10-15T09:58:18.141Z,55.11
2022-10-15T10:01:00.995Z,54.68
2022-10-15T10:03:31.156Z,55.41
2022-10-15T10:06:06.329Z,55.16
2022-10-15T10:08:39.246Z,54.18
2022-10-15T10:11:11.080Z,53.19
2022-10-15T10:13:44.975Z,51.37
2022-10-15T10:16:17.741Z,49.79
2022-10-15T10:19:03.107Z,47.89
2022-10-15T10:21:33.968Z,48.08
2022-10-15T10:24:21.710Z,47.91
2022-10-15T10:26:49.236Z,48.11
2022-10-15T10:29:33.547Z,47.49
2022-10-15T10:32:18.224Z,48.44
2022-10-15T10:34:50.174Z,49.05
2022-10-15T10:37:20.529Z,49.43
2022-10-15T10:39:53.945Z,49.95
2022-10-15T10:42:35.354Z,49.56
2022-10-15T10:45:23.117Z,49.99
2022-10-15T10:47:51.866Z,50.10
2022-10-15T10:50:35.351Z,49.78
2022-10-15T10:53:22.059Z,49.56
2022-10-15T10:55:51.924Z,49.71
2022-10-15T10:58:26.277Z,49.70
2022-10-15T11:00:58.166Z,49.50
2022-10-15T11:03:37.341Z,48.34
2022-10-15T11:06:24.448Z,46.98
2022-10-15T11:09:08.438Z,47.12
2022-10-15T11:12:00.872Z,47.54
2022-10-15T11:14:45.121Z,47.95
2022-10-15T11:17:27.742Z,48.73
2022-10-15T11:23:15.623Z,49.96
2022-10-15T11:25:57.754Z,49.01
2022-10-15T11:28:48.755Z,48.95
2022-10-15T11:31:29.583Z,48.79
2022-10-15T11:34:21.684Z,49.29
2022-10-15T11:37:25.195Z,49.52
2022-10-15T11:40:13.864Z,49.87
2022-10-15T11:42:55.836Z,49.64
2022-10-15T11:46:00.147Z,49.68
2022-10-15T11:48:46.247Z,50.17
2022-10-15T11:51:29.027Z,50.01
2022-10-15T11:54:23.214Z,50.22
2022-10-15T11:56:54.178Z,49.75
2022-10-15T11:59:35.840Z,50.04
2022-10-15T12:02:11.818Z,49.26
2022-10-15T12:04:44.164Z,48.65
2022-10-15T12:07:18.499Z,48.31
2022-10-15T12:09:52.352Z,48.66
2022-10-15T12:12:35.905Z,48.61
2022-10-15T12:15:24.246Z,48.57
2022-10-15T12:18:01.123Z,48.87
2022-10-15T12:20:29.028Z,48.82
2022-10-15T12:23:00.423Z,48.74
2022-10-15T12:25:45.252Z,48.63
2022-10-15T12:28:23.235Z,49.10
2022-10-15T12:31:00.363Z,49.06
2022-10-15T12:33:39.252Z,49.55
2022-10-15T12:36:25.056Z,49.41
2022-10-15T12:38:59.083Z,49.25
2022-10-15T12:41:40.413Z,48.90
2022-10-15T12:44:20.338Z,48.97
2022-10-15T12:46:48.331Z,48.46
2022-10-15T12:49:56.687Z,47.84
2022-10-15T12:53:01.246Z,47.97
2022-10-15T12:55:33.932Z,48.52
2022-10-15T12:58:26.543Z,48.54
2022-10-15T13:00:53.910Z,49.11
2022-10-15T13:03:41.687Z,48.69
2022-10-15T13:06:26.965Z,49.21
2022-10-15T13:09:02.852Z,49.10
2022-10-15T13:11:35.497Z,49.30
2022-10-15T13:14:26.861Z,49.87
2022-10-15T13:16:56.015Z,49.71
2022-10-15T13:19:28.077Z,49.64
2022-10-15T13:21:58.975Z,49.51
2022-10-15T13:24:29.919Z,49.06
2022-10-15T13:27:00.610Z,49.36
2022-10-15T13:29:29.530Z,49.27
2022-10-15T13:31:57.976Z,49.85
2022-10-15T13:34:30.193Z,50.37
2022-10-15T13:37:01.714Z,50.86
2022-10-15T13:39:35.481Z,51.14
2022-10-15T13:42:10.145Z,51.28
2022-10-15T13:44:39.182Z,52.03
2022-10-15T13:47:27.044Z,52.04
2022-10-15T13:50:22.975Z,52.65
2022-10-15T13:52:56.958Z,52.69
2022-10-15T13:55:28.481Z,52.44
2022-10-15T13:58:02.052Z,52.64
2022-10-15T14:00:36.401Z,55.44
2022-10-15T14:03:23.965Z,56.61
2022-10-15T14:05:55.037Z,57.68
2022-10-15T14:08:28.696Z,58.20
2022-10-15T14:10:59.737Z,59.02
2022-10-15T14:13:28.334Z,59.15
2022-10-15T14:16:14.333Z,59.69
2022-10-15T14:18:49.006Z,59.51
2022-10-15T14:21:20.431Z,59.65
2022-10-15T14:23:49.899Z,60.19
2022-10-15T14:26:24.731Z,59.94
2022-10-15T14:28:52.796Z,60.18
2022-10-15T14:31:37.204Z,60.11
2022-10-15T14:34:05.261Z,60.48
2022-10-15T14:36:42.034Z,60.23
2022-10-15T14:39:29.391Z,60.30
2022-10-15T14:42:02.354Z,60.08
2022-10-15T14:44:44.868Z,60.41
2022-10-15T14:47:22.883Z,60.64
2022-10-15T14:49:55.135Z,60.82
2022-10-15T14:52:23.106Z,60.59
2022-10-15T14:55:07.205Z,60.57
2022-10-15T14:57:40.161Z,60.94
2022-10-15T15:03:17.441Z,61.58
2022-10-15T15:05:47.993Z,62.14
2022-10-15T15:08:15.592Z,62.01
2022-10-15T15:10:44.640Z,61.97
2022-10-15T15:13:16.799Z,62.55
2022-10-15T15:15:44.104Z,62.06
2022-10-15T15:18:13.656Z,62.22
2022-10-15T15:20:43.774Z,61.81
2022-10-15T15:23:17.866Z,62.33
2022-10-15T15:25:46.347Z,62.36
2022-10-15T15:28:15.736Z,62.25
2022-10-15T15:30:45.157Z,62.57
2022-10-15T15:33:16.101Z,62.50
2022-10-15T15:35:51.933Z,62.23
2022-10-15T15:38:20.865Z,62.65
2022-10-15T15:40:49.275Z,63.62
2022-10-15T15:43:19.143Z,63.02
2022-10-15T15:45:47.621Z,63.58
2022-10-15T15:48:17.087Z,63.37
2022-10-15T15:50:44.502Z,63.53
2022-10-15T15:53:13.008Z,64.03
2022-10-15T15:55:40.404Z,63.78
2022-10-15T15:58:07.800Z,64.11
2022-10-15T16:00:35.096Z,64.35
2022-10-15T16:03:02.434Z,64.43
2022-10-15T16:05:31.087Z,63.74
2022-10-15T16:07:58.362Z,64.06
2022-10-15T16:10:25.890Z,63.73
2022-10-15T16:12:53.244Z,63.92
2022-10-15T16:15:21.082Z,63.67
2022-10-15T16:17:48.437Z,64.23
2022-10-15T16:20:16.059Z,63.66
2022-10-15T16:22:44.734Z,63.75
2022-10-15T16:25:12.098Z,63.53
2022-10-15T16:27:39.420Z,64.00
2022-10-15T16:30:08.274Z,63.80
2022-10-15T16:32:35.531Z,64.17
2022-10-15T16:35:02.816Z,64.13
2022-10-15T16:37:30.071Z,64.04
2022-10-15T16:39:58.704Z,64.19
2022-10-15T16:42:26.058Z,64.62
2022-10-15T16:44:53.344Z,64.56
2022-10-15T16:47:23.838Z,64.25
2022-10-15T16:49:51.357Z,64.20
2022-10-15T16:52:18.658Z,63.92
2022-10-15T16:54:45.992Z,64.08
2022-10-15T16:57:14.790Z,63.92
2022-10-15T16:59:42.126Z,63.94
2022-10-15T17:02:10.029Z,63.56
2022-10-15T17:04:37.516Z,62.92
2022-10-15T17:07:04.901Z,62.88
2022-10-15T17:09:32.369Z,62.62
2022-10-15T17:11:59.630Z,62.95
2022-10-15T17:14:28.401Z,62.55
2022-10-15T17:16:56.087Z,62.60
2022-10-15T17:19:28.959Z,63.43
2022-10-15T17:21:59.249Z,63.12
2022-10-15T17:24:26.525Z,63.56
2022-10-15T17:26:54.748Z,63.15
2022-10-15T17:29:25.416Z,63.42
2022-10-15T17:31:55.214Z,63.41
2022-10-15T17:34:22.529Z,63.61
2022-10-15T17:36:49.889Z,63.30
2022-10-15T17:39:20.447Z,63.68
2022-10-15T17:41:49.640Z,63.46
2022-10-15T17:44:16.958Z,63.43
2022-10-15T17:46:44.320Z,63.56
2022-10-15T17:49:18.135Z,63.95
2022-10-15T17:51:46.407Z,63.76
2022-10-15T17:54:13.934Z,64.16
2022-10-15T17:56:41.243Z,63.93
2022-10-15T17:59:11.488Z,63.51
2022-10-15T18:01:58.817Z,63.97
2022-10-15T18:04:29.877Z,64.02
2022-10-15T18:06:57.324Z,64.21
2022-10-15T18:09:25.346Z,63.94
2022-10-15T18:11:52.650Z,63.93
2022-10-15T18:16:48.309Z,63.77
2022-10-15T18:19:15.573Z,64.14
2022-10-15T18:21:48.550Z,64.41
2022-10-15T18:24:21.376Z,64.09
2022-10-15T18:26:49.869Z,64.04
2022-10-15T18:29:17.203Z,64.07
2022-10-15T18:31:44.502Z,64.33
2022-10-15T18:34:11.754Z,64.63
2022-10-15T18:36:41.574Z,64.69
2022-10-15T18:39:11.235Z,64.58
2022-10-15T18:41:40.185Z,64.56
2022-10-15T18:44:15.823Z,64.24
2022-10-15T18:46:45.024Z,64.36
2022-10-15T18:49:15.346Z,64.27
2022-10-15T18:51:45.799Z,64.58
2022-10-15T18:54:15.363Z,64.33
2022-10-15T18:56:42.802Z,64.12
2022-10-15T18:59:10.089Z,64.44
2022-10-15T19:01:44.348Z,64.04
2022-10-15T19:04:14.990Z,63.78
2022-10-15T19:06:45.383Z,64.01
2022-10-15T19:09:17.598Z,64.05
2022-10-15T19:11:48.991Z,63.95
2022-10-15T19:14:16.836Z,64.01
2022-10-15T19:16:44.846Z,63.91
2022-10-15T19:19:16.091Z,63.89
2022-10-15T19:21:43.867Z,63.36
2022-10-15T19:24:11.421Z,63.09
2022-10-15T19:26:40.680Z,63.62
2022-10-15T19:29:07.991Z,63.45
2022-10-15T19:31:39.844Z,63.06
2022-10-15T19:34:07.802Z,62.99
2022-10-15T19:36:38.446Z,63.10
2022-10-15T19:39:08.426Z,63.18
2022-10-15T19:41:38.062Z,62.98
2022-10-15T19:44:08.239Z,62.82
2022-10-15T19:46:36.189Z,62.39
2022-10-15T19:49:05.035Z,62.66
2022-10-15T19:51:32.488Z,62.83
2022-10-15T19:54:00.209Z,62.16
2022-10-15T19:56:28.639Z,61.90
2022-10-15T19:58:57.853Z,62.03
2022-10-15T20:01:28.334Z,62.09
2022-10-15T20:04:01.657Z,62.06
2022-10-15T20:06:32.795Z,61.63
2022-10-15T20:09:00.470Z,61.68
2022-10-15T20:11:27.996Z,62.03
2022-10-15T20:13:55.356Z,61.36
2022-10-15T20:16:23.686Z,61.77
2022-10-15T20:18:52.959Z,61.15
2022-10-15T20:21:20.303Z,61.26
2022-10-15T20:23:47.965Z,61.54
2022-10-15T20:26:16.518Z,61.03
2022-10-15T20:28:46.701Z,60.96
2022-10-15T20:31:17.082Z,61.31
2022-10-15T20:33:45.015Z,60.99
2022-10-15T20:36:22.644Z,60.92
2022-10-15T20:38:51.567Z,60.79
2022-10-15T20:41:19.954Z,61.01
2022-10-15T20:43:53.809Z,61.09
2022-10-15T20:46:27.975Z,60.91
2022-10-15T20:48:58.513Z,61.00
2022-10-15T20:51:28.625Z,60.90
2022-10-15T20:53:59.040Z,60.67
2022-10-15T20:56:26.370Z,61.03
2022-10-15T20:58:53.915Z,61.01
2022-10-15T21:01:21.383Z,61.28
2022-10-15T21:03:48.642Z,61.11
2022-10-15T21:06:16.124Z,61.32
2022-10-15T21:08:44.949Z,61.63
2022-10-15T21:11:12.303Z,61.57
2022-10-15T21:13:39.654Z,61.49
2022-10-15T21:16:08.909Z,61.79
2022-10-15T21:18:37.391Z,61.59
2022-10-15T21:21:07.289Z,61.79
2022-10-15T21:23:35.466Z,61.81
2022-10-15T21:26:08.989Z,61.26
2022-10-15T21:28:37.243Z,61.53
2022-10-15T21:31:07.076Z,61.26
2022-10-15T21:33:36.091Z,61.14
2022-10-15T21:36:14.418Z,61.83
2022-10-15T21:38:42.610Z,61.53
2022-10-15T21:41:11.245Z,61.96
2022-10-15T21:43:38.696Z,61.98
2022-10-15T21:46:08.469Z,61.73
2022-10-15T21:48:36.726Z,61.95
2022-10-15T21:51:05.295Z,62.09
2022-10-15T21:53:33.657Z,62.05
2022-10-15T21:56:02.148Z,61.72
2022-10-15T21:58:30.912Z,61.98
2022-10-15T22:01:06.614Z,61.73
2022-10-15T22:03:33.898Z,61.94
2022-10-15T22:06:01.296Z,62.08
2022-10-15T22:08:29.102Z,62.00
2022-10-15T22:11:07.437Z,61.68
2022-10-15T22:13:36.305Z,62.02
2022-10-15T22:16:04.774Z,61.69
2022-10-15T22:18:32.074Z,61.63
2022-10-15T22:21:10.320Z,61.63
2022-10-15T22:23:37.659Z,61.79
2022-10-15T22:26:05.207Z,61.69
2022-10-15T22:28:32.534Z,61.27
2022-10-15T22:31:05.227Z,61.52
2022-10-15T22:33:33.801Z,61.14
2022-10-15T22:36:02.127Z,61.11
2022-10-15T22:38:29.522Z,60.75
2022-10-15T22:40:57.255Z,60.49
2022-10-15T22:43:25.206Z,60.19
2022-10-15T22:45:52.594Z,59.90
2022-10-15T22:48:21.345Z,59.76
2022-10-15T22:50:56.194Z,59.50
2022-10-15T22:53:24.055Z,59.57
2022-10-15T22:55:56.588Z,59.31
2022-10-15T22:58:24.430Z,59.30
2022-10-15T23:00:52.712Z,58.91
2022-10-15T23:03:22.356Z,58.80
2022-10-15T23:05:56.209Z,58.41
2022-10-15T23:08:23.832Z,58.52
2022-10-15T23:10:51.173Z,58.44
2022-10-15T23:13:18.485Z,58.05
2022-10-15T23:15:45.807Z,57.93
2022-10-15T23:18:13.180Z,57.65
2022-10-15T23:20:41.901Z,57.60
2022-10-15T23:23:09.149Z,57.53
2022-10-15T23:25:39.613Z,57.29
2022-10-15T23:28:06.954Z,57.33
2022-10-15T23:30:34.303Z,57.26
2022-10-15T23:33:02.866Z,56.65
2022-10-15T23:35:30.249Z,56.62
2022-10-15T23:37:58.889Z,56.49
2022-10-15T23:40:26.170Z,56.28
2022-10-15T23:42:54.564Z,56.40
2022-10-15T23:45:21.972Z,56.59
2022-10-15T23:47:49.327Z,56.50
2022-10-15T23:50:17.544Z,56.50
2022-10-15T23:52:44.842Z,56.28
2022-10-15T23:55:13.815Z,56.47
2022-10-15T23:57:41.028Z,56.52
